Tiempo atmosférico en la estación meteorológica de Girona Aeropuerto, Girona (143 m.)

Fecha
DESCASC
Temp. máxima en grados centígrados (hora)
DESCASC
Temp. mínima en grados centígrados (hora)
DESCASC
Temp. media en grados centígrados
DESCASC
Racha de viento máxima en m/sg (hora)
DESCASC
Velocidad máxima media en intervalos de 10 minutos(hora)
DESCASC
Precipitaciones diarias en mm
DESCASC
Precipitaciones de 00:00 a 06:00 en mm
DESCASC
Precipitaciones de 06:00 a 12:00 en mm
DESCASC
Precipitaciones de 12:00 a 18:00 en mm
DESCASC
Precipitaciones de 18:00 a 24:00 en mm
DESCASC
23-11-2017 21 (14:00) 5.4 (05:40) 13.2 9.17 (14:10) 6.39 (14:20) 0 0 0 0 0
22-11-2017 20.2 (14:00) 0.6 (06:30) 10.4 12.78 (15:30) 10 (15:50) 0 0 0 0 0
21-11-2017 22.1 (14:50) 0.8 (07:50) 11.5 4.17 (15:50) 2.5 (16:20) 0 0 0 0 0
20-11-2017 20 (15:10) 0.5 (07:50) 10.3 5 (13:00) 3.06 (16:20) 0 0 0 0 0
19-11-2017 19.1 (15:30) 0.2 (00:00) 9.7 4.17 (12:50) 3.33 (17:10) 0 0 0 0 0
18-11-2017 19.8 (14:50) 1.3 (00:00) 10.5 5 (15:40) 3.61 (15:50) 0 0 0 0 0
17-11-2017 21.1 (13:50) -0.2 (00:00) 10.5 5 (16:10) 3.33 (16:20) 0 0 0 0 0
16-11-2017 17.3 (14:30) -1 (-00:0) 8.1 6.11 (14:20) 3.89 (15:50) 0 0 0 0 0
15-11-2017 17.9 (14:20) -3.8 (-00:0) 7 5.83 (13:30) 3.61 (14:00) 0 0 0 0 0
14-11-2017 16.3 (12:30) -1.2 (-00:0) 7.5 15.28 (12:40) 11.11 (13:40) 0 0 0 0 0
13-11-2017 14.8 (13:40) 1.7 (00:00) 8.3 16.94 (15:50) 9.72 (01:10) 0 0 0 0 0
12-11-2017 19.4 (14:20) 2.7 (00:00) 11 6.67 (13:50) 4.44 (15:00) 0 0 0 0 0
11-11-2017 14.9 (16:50) 1.8 (00:00) 8.3 4.17 (07:10) 2.22 (23:50) 0 0 0 0 0
10-11-2017 17.3 (13:50) -1 (-00:0) 8.1 5.83 (15:40) 3.61 (15:10) 0 0 0 0 0
09-11-2017 12.2 (14:00) 1.4 (00:00) 6.8 4.72 (05:40) 3.06 (10:30) 0 0 0 0 0
08-11-2017 14.4 (13:30) 0.5 (00:00) 7.4 4.17 (23:00) 1.94 (22:10) 0 0 0 0 0
07-11-2017 15.9 (14:40) -0.8 (-00:0) 7.5 6.11 (13:10) 3.89 (14:00) 0 0 0 0 0
06-11-2017 17.2 (16:00) 2.7 (00:00) 10 18.89 (12:30) 9.17 (12:30) 0 0 0 0 0
05-11-2017 19.5 (14:30) 6.2 (00:00) 12.8 8.33 (17:10) 5.83 (17:20) 0.7 0.7 0 0 0
04-11-2017 22.5 (13:20) 12.4 (00:00) 17.4 6.67 (14:20) 4.72 (14:20) 2.3 0 0 0 2.3
03-11-2017 22.7 (14:30) 10 (00:00) 16.4 11.67 (13:50) 8.33 (14:50) 0 0 0 0 0
02-11-2017 23.7 (13:40) 8.3 (07:20) 16 10.28 (13:30) 7.78 (14:00) 0 0 0 0 0
01-11-2017 20.5 (14:10) 3.9 (00:00) 12.2 8.89 (14:30) 5 (15:40) -- 0 0 -- 0
31-10-2017 20.1 (15:40) 7.3 (00:00) 13.7 7.78 (10:40) 5.28 (10:50) 0 0 0 0 0
30-10-2017 21.9 (14:20) 6.3 (00:00) 14.1 7.22 (18:10) 4.72 (18:10) 0 0 0 0 0
29-10-2017 -- (--) -- (--) -- -- (--) -- (--) -- -- 0 0 0
28-10-2017 23.5 (15:00) 9.2 (00:00) 16.3 6.67 (15:30) 4.72 (15:50) 0 0 0 0 0
27-10-2017 24.1 (15:00) 9.8 (00:00) 17 11.39 (15:40) 7.78 (15:50) 0 0 0 0 0
26-10-2017 23.9 (15:20) 9.7 (00:00) 16.8 5 (15:20) 3.61 (18:00) 0 0 0 0 0
25-10-2017 25 (14:50) 9.5 (00:00) 17.3 7.22 (16:30) 4.72 (16:10) 0 0 0 0 0

Gráficas

Temp. máximas Temp. mínimas Temp. medias Precipitaciones Rachas de viento máximas Velocidades máximas media en intervalos de 10 minutos

Datos horarios

Fecha y hora oficial Temperatura (ºC) Velocidad del viento (km/h) Dirección del viento Racha (km/h) Dirección de racha Precipitación (mm) Presión (hPa) Tendencia (hPa) Humedad (%)
2017-11-23 23:00:00 9 0 Calma 8 Norte 0 1002.8 0.6 98
2017-11-23 22:00:00 9.5 3 Norte 11 Norte 0 1002.7 0.9 94
2017-11-23 21:00:00 11.8 3 Norte 15 Nordeste 0 1002.5 1.4 95
2017-11-23 20:00:00 12.3 12 Nordeste 17 Nordeste 0 1002.2 1.9 93
2017-11-23 19:00:00 11.5 10 Nordeste 15 Nordeste 0 1001.8 2.1 84
2017-11-23 18:00:00 12.8 7 Nordeste 15 Nordeste 0 1001.1 1.7 79
2017-11-23 17:00:00 16.8 8 Nordeste 18 Sur 0 1000.3 0.8 71
2017-11-23 16:00:00 20 8 Sudeste 28 Sudoeste 0 999.7 -0.4 55
2017-11-23 15:00:00 21 19 Sur 33 Sur 0 999.4 -1.6 46
2017-11-23 14:00:00 21 18 Sur 28 Sur 0 999.5 -1.8 45
2017-11-23 13:00:00 19.3 17 Sur 26 Sur 0 1000.1 -1 58
2017-11-23 12:00:00 16.8 3 Sur 8 Sudoeste 0 1001 0.1 66
2017-11-23 11:00:00 14.6 0 Calma 11 Sur 0 1001.3 1.4 69
2017-11-23 10:00:00 11 3 Nordeste 8 Nordeste 0 1001.1 1.6 85
2017-11-23 09:00:00 7.7 0 Calma 8 Nordeste 0 1000.9 1.8 92
2017-11-23 08:00:00 6.6 4 Norte 11 Sudoeste 0 999.9 0.8 94
2017-11-23 07:00:00 7.7 5 Nordeste 21 Sudoeste 0 999.5 0.7 88
2017-11-23 06:00:00 6.5 12 Sudoeste 17 Sudoeste 0 999.1 0.2 92
2017-11-23 05:00:00 7.7 9 Oeste 15 Sudoeste 0 999.1 0.2 88
2017-11-23 04:00:00 9 11 Sudoeste 22 Sudoeste 0 998.8 -0.3 91
2017-11-23 03:00:00 7.5 6 Sudoeste 17 Sudoeste 0 998.9 -0.5 96
2017-11-23 02:00:00 8.9 3 Sur 22 Sur 0 998.9 -0.2 94
2017-11-23 01:00:00 10.4 12 Sudoeste 26 Sudoeste 0 999.1 0.2 94
2017-11-23 00:00:00 11.1 16 Sudoeste 26 Sudoeste 0 999.4 0.9 96
2017-11-22 23:00:00 11.5 13 Sudoeste 24 Sudoeste 0 999.1 0.5 95
2017-11-22 22:00:00 12 12 Sudoeste 21 Sudoeste 0 998.9 0.4 94
2017-11-22 21:00:00 11.4 9 Sudoeste 18 Sur 0 998.5 0.3 94
2017-11-22 20:00:00 13.2 11 Sudoeste 30 Sudoeste 0 998.6 0.9 87
2017-11-22 19:00:00 13.4 21 Sur 32 Sur 0 998.5 0.6 87
2017-11-22 18:00:00 14.1 22 Sur 42 Sudoeste 0 998.2 0.3 84
2017-11-22 17:00:00 16 27 Sur 39 Sur 0 997.7 -0.6 76
2017-11-22 16:00:00 17.7 33 Sur 46 Sur 0 997.9 -1 67
2017-11-22 15:00:00 18.9 30 Sur 41 Sur 0 997.9 -2.2 60
2017-11-22 14:00:00 20.1 26 Sur 35 Sur 0 998.3 -2.6 51
2017-11-22 13:00:00 19.6 16 Sur 26 Sur 0 998.9 -2.2 48
2017-11-22 12:00:00 17.3 18 Sur 26 Sur 0 1000.1 -0.9 56
2017-11-22 11:00:00 12.4 0 Calma 5 Sudeste 0 1000.9 0.4 63
2017-11-22 10:00:00 8.6 0 Calma 5 Nordeste 0 1001.1 0.5 77
2017-11-22 09:00:00 4.5 0 Calma 4 Nordeste 0 1001 0.4 96
2017-11-22 08:00:00 1.7 0 Calma 4 Noroeste 0 1000.5 -0.4 97
2017-11-22 07:00:00 1 0 Calma -- -- 0 1000.6 -0.8 97
2017-11-22 06:00:00 0.9 0 Calma 4 Sur 0 1000.6 -1.2 96
2017-11-22 05:00:00 2 0 Calma 5 Oeste 0 1000.9 -1.1 97
2017-11-22 04:00:00 1.8 4 Sudoeste 8 Oeste 0 1001.4 -1.3 95
2017-11-22 03:00:00 2 0 Calma 4 Oeste 0 1001.8 -1.4 94
2017-11-22 02:00:00 2.1 0 Calma 4 Oeste 0 1002 -1.3 91
2017-11-22 01:00:00 2.7 0 Calma 4 Sudoeste 0 1002.7 -0.7 90
2017-11-22 00:00:00 4.1 0 Calma 8 Oeste 0 1003.2 -0.2 90
2017-11-21 23:00:00 5.1 5 Oeste 8 Oeste 0 1003.3 -0.3 91
2017-11-21 22:00:00 6 3 Oeste 4 Oeste 0 1003.4 -0.3 89
2017-11-21 21:00:00 7.1 0 Calma 4 Norte 0 1003.4 0 87
2017-11-21 20:00:00 8.5 0 Calma 5 Sudoeste 0 1003.6 0.4 80
2017-11-21 19:00:00 12.2 3 Sudoeste 8 Sudoeste 0 1003.7 0.4 72
2017-11-21 18:00:00 15.1 5 Sudoeste 8 Sudoeste 0 1003.4 0 64
2017-11-21 17:00:00 18.3 8 Sur 13 Sur 0 1003.2 -0.6 40
2017-11-21 16:00:00 21.3 7 Sudeste 15 Sudeste 0 1003.3 -1.1 33
2017-11-21 15:00:00 22 5 Sur 13 Sur 0 1003.4 -1.8 34
2017-11-21 14:00:00 21.4 4 Sur 11 Sur 0 1003.8 -1.7 35
2017-11-21 13:00:00 19.6 4 Sur 11 Sur 0 1004.4 -1.1 39
2017-11-21 12:00:00 17.2 0 Calma 4 Sudeste 0 1005.2 -0.2 49
2017-11-21 11:00:00 13.7 0 Calma 4 Sur 0 1005.5 0.3 56
2017-11-21 10:00:00 9.9 0 Calma 4 Sur 0 1005.5 0.7 78
2017-11-21 09:00:00 5.7 0 Calma 2 Oeste 0 1005.4 0.6 98
2017-11-21 08:00:00 0.9 0 Calma -- -- 0 1005.2 0.5 98
2017-11-21 07:00:00 1.8 0 Calma -- -- 0 1004.8 0 98
2017-11-21 06:00:00 1.3 0 Calma 4 Noroeste 0 1004.8 -0.4 96
2017-11-21 05:00:00 2.2 0 Calma 5 Noroeste 0 1004.7 -0.6 97
2017-11-21 04:00:00 2.7 0 Calma -- -- 0 1004.8 -0.8 96
2017-11-21 03:00:00 3 0 Calma 4 Nordeste 0 1005.2 -0.6 94
2017-11-21 02:00:00 5.1 0 Calma -- -- 0 1005.3 -0.5 94
2017-11-21 01:00:00 4.6 5 Oeste 9 Oeste 0 1005.6 -0.5 96
2017-11-21 00:00:00 4.8 0 Calma 4 Oeste 0 1005.8 -0.3 97
2017-11-20 23:00:00 5.3 0 Calma -- -- 0 1005.8 -0.2 95
2017-11-20 22:00:00 6.5 0 Calma -- -- 0 1006.1 0.6 92
2017-11-20 21:00:00 7.3 0 Calma 5 Norte 0 1006.1 0.7 91
2017-11-20 20:00:00 8.9 0 Calma 4 Sur 0 1006 0.8 88
2017-11-20 19:00:00 11.5 4 Sudoeste 8 Sudoeste 0 1005.5 0.2 81
2017-11-20 18:00:00 13.3 5 Sur 15 Sur 0 1005.4 -0.2 75
2017-11-20 17:00:00 16.1 11 Sur 15 Sur 0 1005.2 -1 63
2017-11-20 16:00:00 19.4 5 Sudoeste 13 Sudoeste 0 1005.3 -1.3 42
2017-11-20 15:00:00 19.7 3 Sudoeste 15 Sur 0 1005.6 -1.7 37
2017-11-20 14:00:00 19 6 Sur 15 Sudoeste 0 1006.2 -1.5 46
2017-11-20 13:00:00 17.6 10 Sur 18 Sur 0 1006.6 -1.1 55
2017-11-20 12:00:00 15.3 3 Sur 11 Sur 0 1007.3 -0.1 58
2017-11-20 11:00:00 12 4 Sudeste 8 Sur 0 1007.7 0.6 68
2017-11-20 10:00:00 9.1 0 Calma 4 Sudoeste 0 1007.7 1 80
2017-11-20 09:00:00 4.2 2 Este 5 Nordeste 0 1007.4 0.7 96
2017-11-20 08:00:00 1 0 Calma 2 Sudoeste 0 1007.1 0.6 97
2017-11-20 07:00:00 1.6 0 Calma 5 Oeste 0 1006.7 0 96
2017-11-20 06:00:00 1.7 0 Calma 8 Este 0 1006.7 -0.1 97
2017-11-20 05:00:00 2.2 0 Calma 5 Oeste 0 1006.5 -0.1 98
2017-11-20 04:00:00 1.8 2 Nordeste 8 Este 0 1006.7 -0.1 98
2017-11-20 03:00:00 1.8 0 Calma 4 Nordeste 0 1006.8 0 96
2017-11-20 02:00:00 2.5 0 Calma 4 Sudoeste 0 1006.6 0.1 94
2017-11-20 01:00:00 3.9 0 Calma 8 Nordeste 0 1006.8 0.4 91
2017-11-20 00:00:00 3 5 Nordeste 8 Nordeste 0 1006.8 0.9 92
2017-11-19 23:00:00 4.8 3 Sudoeste 5 Sudoeste 0 1006.5 0.9 92
2017-11-19 22:00:00 6 0 Calma 5 Este 0 1006.4 1.4 84
2017-11-19 21:00:00 7 0 Calma -- -- 0 1005.9 1.3 83
2017-11-19 20:00:00 7.9 0 Calma 8 Nordeste 0 1005.6 1.5 81
2017-11-19 19:00:00 11.7 4 Oeste 8 Oeste 0 1005 1.2 67
2017-11-19 18:00:00 13.2 4 Sudoeste 15 Sudoeste 0 1004.6 0.6 62
2017-11-19 17:00:00 16.2 7 Sudoeste 15 Sudoeste 0 1004.1 -0.4 33
2017-11-19 16:00:00 18.9 5 Sur 15 Sur 0 1003.8 -0.9 40
2017-11-19 15:00:00 18.7 3 Sudoeste 13 Sudoeste 0 1004 -1.4 53
2017-11-19 14:00:00 18.1 6 Sur 15 Sur 0 1004.5 -1.2 57
2017-11-19 13:00:00 17.4 9 Sur 15 Sudoeste 0 1004.7 -0.8 65
2017-11-19 12:00:00 15.6 0 Calma 5 Sur 0 1005.4 0.3 65
2017-11-19 11:00:00 11.7 0 Calma 4 Sur 0 1005.7 1.1 74
2017-11-19 10:00:00 7.5 0 Calma 4 Este 0 1005.5 1.4 88
2017-11-19 09:00:00 2.9 0 Calma 4 Sudoeste 0 1005.1 1 99
2017-11-19 08:00:00 0.5 0 Calma 2 Sur 0 1004.6 0.7 100
2017-11-19 07:00:00 1 0 Calma 4 Nordeste 0 1004.1 0.1 100
2017-11-19 06:00:00 0.9 0 Calma 11 Norte 0 1004.1 -0.4 99
2017-11-19 05:00:00 1.7 0 Calma -- -- 0 1003.9 -0.4 98
2017-11-19 04:00:00 2.6 0 Calma 4 Noroeste 0 1004 -0.7 98
2017-11-19 03:00:00 2.8 0 Calma 2 Nordeste 0 1004.5 -0.5 98
2017-11-19 02:00:00 3.6 0 Calma 2 Sudoeste 0 1004.3 -0.9 98
2017-11-19 01:00:00 4.3 0 Calma 8 Sudoeste 0 1004.7 -0.3 98
2017-11-19 00:00:00 5.5 0 Calma 4 Oeste 0 1005 0.3 98
2017-11-18 23:00:00 6.4 0 Calma 8 Nordeste 0 1005.2 0.8 98
2017-11-18 22:00:00 6.8 2 Nordeste 5 Nordeste 0 1005 0.9 97
2017-11-18 21:00:00 8.9 0 Calma 5 Oeste 0 1004.7 1 91
2017-11-18 20:00:00 9.6 0 Calma 4 Sur 0 1004.4 0.9 92
2017-11-18 19:00:00 11.9 3 Sudoeste 8 Sudoeste 0 1004.1 0.9 82
2017-11-18 18:00:00 13.2 3 Sudoeste 17 Sudoeste 0 1003.7 0.8 78
2017-11-18 17:00:00 15.1 12 Sur 17 Sur 0 1003.5 0.3 72
2017-11-18 16:00:00 18.3 13 Sur 18 Sur 0 1003.2 -0.4 59
2017-11-18 15:00:00 19.6 4 Sur 17 Sur 0 1002.9 -1.6 51
2017-11-18 14:00:00 19.2 8 Sur 17 Sur 0 1003.2 -1.3 53
2017-11-18 13:00:00 18.4 3 Sur 13 Sur 0 1003.6 -1 56
2017-11-18 12:00:00 16 3 Nordeste 13 Nordeste 0 1004.5 0.2 53
2017-11-18 11:00:00 13.6 3 Sur 9 Sur 0 1004.5 0.8 64
2017-11-18 10:00:00 6.7 0 Calma 5 Nordeste 0 1004.6 1.2 85
2017-11-18 09:00:00 3.9 3 Nordeste 5 Este 0 1004.3 1 94
2017-11-18 08:00:00 1.8 0 Calma 13 Oeste 0 1003.7 0.4 93
2017-11-18 07:00:00 2.3 0 Calma 8 Norte 0 1003.4 0.2 93
2017-11-18 06:00:00 1.4 4 Nordeste 8 Nordeste 0 1003.3 0 94
2017-11-18 05:00:00 2.2 5 Nordeste 8 Nordeste 0 1003.3 0.1 93
2017-11-18 04:00:00 2.6 0 Calma 5 Nordeste 0 1003.2 -0.2 94
2017-11-18 03:00:00 3 0 Calma 4 Nordeste 0 1003.3 -0.5 91
2017-11-18 02:00:00 3.2 0 Calma 5 Nordeste 0 1003.2 -0.5 91
2017-11-18 01:00:00 4.3 0 Calma 4 Oeste 0 1003.4 -0.1 89
2017-11-18 00:00:00 4.6 0 Calma 8 Sudoeste 0 1003.8 0.5 91
2017-11-17 23:00:00 5.6 2 Sur 5 Nordeste 0 1003.7 0.6 90
2017-11-17 22:00:00 5.8 0 Calma 8 Noroeste 0 1003.5 0.7 93
2017-11-17 21:00:00 6.5 0 Calma 4 Nordeste 0 1003.3 1 86
2017-11-17 20:00:00 9.1 0 Calma 4 Noroeste 0 1003.1 1.2 82
2017-11-17 19:00:00 10.8 0 Calma 8 Sur 0 1002.8 1.1 73
2017-11-17 18:00:00 13 0 Calma 15 Sudeste 0 1002.3 0.6 66
2017-11-17 17:00:00 16.1 8 Sudeste 18 Sudeste 0 1001.9 -0.2 54
2017-11-17 16:00:00 20.7 5 Sur 13 Sur 0 1001.7 -1.2 29
2017-11-17 15:00:00 20.4 9 Sudoeste 15 Sudoeste 0 1001.7 -1.7 27
2017-11-17 14:00:00 20.7 5 Sur 13 Sudoeste 0 1002.1 -1.8 26
2017-11-17 13:00:00 19.6 2 Sudeste 13 Oeste 0 1002.9 -1.2 31
2017-11-17 12:00:00 16 5 Sudoeste 11 Sur 0 1003.4 -0.9 49
2017-11-17 11:00:00 12.6 2 Sur 5 Sur 0 1003.9 0.1 57
2017-11-17 10:00:00 9 0 Calma 4 Sudoeste 0 1004.1 0.6 68
2017-11-17 09:00:00 4 0 Calma 5 Oeste 0 1004.3 0.8 88
2017-11-17 08:00:00 0.1 0 Calma 5 Sudoeste 0 1003.8 0.1 96
2017-11-17 07:00:00 0.3 0 Calma 5 Nordeste 0 1003.5 -0.4 96
2017-11-17 06:00:00 -0.1 0 Calma 8 Nordeste 0 1003.5 -0.6 94
2017-11-17 05:00:00 0.5 0 Calma 5 Sudoeste 0 1003.7 -0.7 93
2017-11-17 04:00:00 1.1 0 Calma 8 Nordeste 0 1003.9 -0.8 93
2017-11-17 03:00:00 2.5 4 Oeste 8 Oeste 0 1004.1 -0.7 91
2017-11-17 02:00:00 2.1 0 Calma 11 Nordeste 0 1004.4 -0.5 95
2017-11-17 01:00:00 3 2 Noroeste 8 Nordeste 0 1004.7 -0.3 91
2017-11-17 00:00:00 4.1 0 Calma 5 Norte 0 1004.8 -0.1 91
2017-11-16 23:00:00 6.3 3 Oeste 11 Norte 0 1004.9 0.5 88
2017-11-16 22:00:00 7.7 4 Noroeste 15 Norte 0 1005 1 90
2017-11-16 21:00:00 8 4 Norte 15 Norte 0 1004.9 1.5 90
2017-11-16 20:00:00 7.2 4 Norte 11 Norte 0 1004.4 1.3 90
2017-11-16 19:00:00 8.4 5 Nordeste 13 Nordeste 0 1004 1 89
2017-11-16 18:00:00 11.2 2 Sudeste 11 Este 0 1003.4 0.1 80
2017-11-16 17:00:00 14 9 Sur 18 Sur 0 1003.1 -0.6 69
2017-11-16 16:00:00 16 12 Sur 22 Sur 0 1003 -1.6 60
2017-11-16 15:00:00 17 14 Sur 22 Sur 0 1003.3 -2.1 50
2017-11-16 14:00:00 16.7 5 Sur 17 Sudoeste 0 1003.7 -2.3 45
2017-11-16 13:00:00 15.4 4 Sudoeste 11 Sur 0 1004.6 -0.9 45
2017-11-16 12:00:00 14.2 0 Calma 5 Sur 0 1005.4 0.3 51
2017-11-16 11:00:00 11.7 0 Calma 5 Este 0 1006 1.6 58
2017-11-16 10:00:00 7.5 0 Calma 4 Sur 0 1005.5 1.3 64
2017-11-16 09:00:00 4.1 0 Calma 4 Este 0 1005.1 1.2 78
2017-11-16 08:00:00 0 0 Calma 8 Noroeste 0 1004.4 0.6 89
2017-11-16 07:00:00 3.3 8 Noroeste 13 Noroeste 0 1004.2 0.1 78
2017-11-16 06:00:00 -0.5 2 Nordeste 5 Nordeste 0 1003.9 -0.2 91
2017-11-16 05:00:00 -0.4 2 Nordeste 4 Nordeste 0 1003.8 -0.2 90
2017-11-16 04:00:00 0 0 Calma 4 Nordeste 0 1004.1 0.1 91
2017-11-16 03:00:00 0.7 0 Calma 5 Noroeste 0 1004.1 -0.2 89
2017-11-16 02:00:00 1.4 0 Calma 4 Este 0 1004 -0.1 88
2017-11-16 01:00:00 2.2 0 Calma 5 Noroeste 0 1004 -0.2 85
2017-11-16 00:00:00 1.6 3 Nordeste 4 Nordeste 0 1004.3 0.5 87
2017-11-15 23:00:00 2.9 0 Calma 2 Este 0 1004.1 0.6 85
2017-11-15 22:00:00 3.8 0 Calma 5 Norte 0 1004.2 1.2 84
2017-11-15 21:00:00 4.8 0 Calma 8 Norte 0 1003.8 1.3 84
2017-11-15 20:00:00 6.5 2 Nordeste 8 Nordeste 0 1003.5 1.7 81
2017-11-15 19:00:00 9.4 5 Oeste 8 Oeste 0 1003 1.2 69
2017-11-15 18:00:00 11.5 0 Calma 8 Sur 0 1002.5 0.9 55
2017-11-15 17:00:00 14.7 7 Sur 13 Sur 0 1001.8 -0.1 48
2017-11-15 16:00:00 17.2 11 Sur 17 Sur 0 1001.8 -0.6 29
2017-11-15 15:00:00 17.8 11 Sur 18 Sur 0 1001.6 -1.6 26
2017-11-15 14:00:00 17.5 13 Sur 21 Sur 0 1001.9 -2.1 26
2017-11-15 13:00:00 16.3 11 Sur 17 Sur 0 1002.4 -1.6 32
2017-11-15 12:00:00 14 5 Sur 13 Sur 0 1003.2 -0.5 40
2017-11-15 11:00:00 10.4 3 Sur 8 Sur 0 1004 0.5 50
2017-11-15 10:00:00 6.2 0 Calma 5 Nordeste 0 1004 0.9 63
2017-11-15 09:00:00 0.8 3 Nordeste 5 Nordeste 0 1003.7 0.7 81
2017-11-15 08:00:00 -2.5 0 Calma 8 Oeste 0 1003.5 0.6 89
2017-11-15 07:00:00 -3 5 Sudoeste 8 Sudoeste 0 1003.1 -0.1 90
2017-11-15 06:00:00 -3.1 0 Calma 8 Oeste 0 1003 -0.3 89
2017-11-15 05:00:00 -2.3 2 Oeste 8 Oeste 0 1002.9 -0.6 87
2017-11-15 04:00:00 -1.7 0 Calma 8 Oeste 0 1003.2 -0.7 87
2017-11-15 03:00:00 -1 0 Calma 5 Este 0 1003.3 -1.1 85
2017-11-15 02:00:00 -1.2 4 Sur 9 Norte 0 1003.5 -1 83
2017-11-15 01:00:00 -0.1 0 Calma 8 Norte 0 1003.9 -0.6 78
2017-11-15 00:00:00 1.3 2 Norte 8 Noroeste 0 1004.4 -0.1 74
2017-11-14 23:00:00 4 3 Norte 13 Noroeste 0 1004.5 0.4 63
2017-11-14 22:00:00 3.5 2 Norte 9 Norte 0 1004.5 0.9 65
2017-11-14 21:00:00 3.8 3 Oeste 5 Oeste 0 1004.5 1.9 61
2017-11-14 20:00:00 5 0 Calma 5 Nordeste 0 1004.1 2.2 55
2017-11-14 19:00:00 7.7 0 Calma 17 Norte 0 1003.6 2 45
2017-11-14 18:00:00 10.2 11 Nordeste 33 Nordeste 0 1002.6 1.5 35
2017-11-14 17:00:00 12.6 23 Nordeste 41 Nordeste 0 1001.9 1 28
2017-11-14 16:00:00 14.1 30 Nordeste 55 Nordeste 0 1001.6 0.6 24
2017-11-14 15:00:00 15.2 36 Nordeste 54 Nordeste 0 1001.1 -0.1 20
2017-11-14 14:00:00 15.7 37 Nordeste 55 Nordeste 0 1000.9 -0.9 18
2017-11-14 13:00:00 16.1 37 Nordeste 55 Nordeste 0 1001 -0.6 16
2017-11-14 12:00:00 15.7 33 Nordeste 52 Nordeste 0 1001.2 0.1 17
2017-11-14 11:00:00 14 7 Norte 18 Norte 0 1001.8 1.4 25
2017-11-14 10:00:00 10.7 7 Oeste 21 Sudoeste 0 1001.6 1.7 32
2017-11-14 09:00:00 8.1 4 Oeste 21 Oeste 0 1001.1 1.7 36
2017-11-14 08:00:00 0.1 0 Calma 17 Noroeste 0 1000.4 1.1 66
2017-11-14 07:00:00 -0.9 4 Noroeste 11 Oeste 0 999.9 1.2 68
2017-11-14 06:00:00 2.2 4 Noroeste 15 Noroeste 0 999.4 0.3 51
2017-11-14 05:00:00 1 3 Oeste 15 Oeste 0 999.3 0.6 58
2017-11-14 04:00:00 3.3 7 Noroeste 17 Noroeste 0 998.7 -0.2 46
2017-11-14 03:00:00 2.6 3 Norte 26 Oeste 0 999.1 0.9 50
2017-11-14 02:00:00 3.6 8 Oeste 26 Oeste 0 998.7 1.1 46
2017-11-14 01:00:00 2.7 10 Oeste 21 Sudoeste 0 998.9 1.3 52
2017-11-14 00:00:00 2.3 5 Oeste 17 Oeste 0 998.2 0.8 55
2017-11-13 23:00:00 3.8 4 Sudoeste 13 Oeste 0 997.6 0.2 48
2017-11-13 22:00:00 4.4 8 Oeste 15 Oeste 0 997.6 -0.1 46
2017-11-13 21:00:00 4.7 4 Sudeste 11 Oeste 0 997.4 -0.3 45
2017-11-13 20:00:00 6.8 5 Oeste 8 Noroeste 0 997.4 -0.1 37
2017-11-13 19:00:00 9.1 5 Norte 30 Norte 0 997.7 1 30
2017-11-13 18:00:00 10.8 8 Norte 37 Noroeste 0 997.7 1.1 26
2017-11-13 17:00:00 12 18 Norte 46 Norte 0 997.5 0.7 24
2017-11-13 16:00:00 13.4 25 Norte 61 Noroeste 0 996.7 -0.2 22
2017-11-13 15:00:00 13.9 26 Norte 55 Norte 0 996.6 -1.2 21
2017-11-13 14:00:00 14.5 22 Norte 54 Norte 0 996.8 -1.2 22
2017-11-13 13:00:00 14.6 21 Norte 54 Norte 0 996.9 -0.8 21
2017-11-13 12:00:00 13.9 27 Norte 54 Nordeste 0 997.8 0.6 21
2017-11-13 11:00:00 13.4 30 Norte 59 Nordeste 0 998 1 20
2017-11-13 10:00:00 13.1 19 Norte 50 Noroeste 0 997.7 2.2 19
2017-11-13 09:00:00 12.2 18 Norte 37 Norte 0 997.2 2.1 22
2017-11-13 08:00:00 11.3 12 Nordeste 39 Nordeste 0 997 2.3 26
2017-11-13 07:00:00 8 10 Norte 30 Nordeste 0 995.5 1.4 45
2017-11-13 06:00:00 9.7 10 Nordeste 42 Nordeste 0 995.1 1 42
2017-11-13 05:00:00 8.3 16 Nordeste 35 Nordeste 0 994.7 1 53
2017-11-13 04:00:00 9.3 24 Nordeste 55 Norte 0 994.1 0.3 55
2017-11-13 03:00:00 9.7 30 Nordeste 45 Nordeste 0 994.1 0.6 54
2017-11-13 02:00:00 9.3 23 Nordeste 52 Este 0 993.7 0.3 68
2017-11-13 01:00:00 10.9 30 Nordeste 46 Este 0 993.8 0.4 82
2017-11-13 00:00:00 6.9 5 Nordeste 11 Nordeste 0 993.5 -0.8 94
2017-11-12 23:00:00 7.3 5 Nordeste 8 Nordeste 0 993.4 -1.6 91
2017-11-12 22:00:00 9 2 Sur 8 Noroeste 0 993.4 -2.7 85
2017-11-12 21:00:00 9.4 5 Noroeste 8 Oeste 0 994.3 -2.1 85
2017-11-12 20:00:00 10.3 0 Calma 8 Norte 0 995 -2.2 82
2017-11-12 19:00:00 12.4 4 Norte 13 Noroeste 0 996.1 -1.4 76
2017-11-12 18:00:00 14.2 7 Sudoeste 21 Sudoeste 0 996.4 -1 71
2017-11-12 17:00:00 17 9 Sudoeste 17 Sur 0 997.2 -1 60
2017-11-12 16:00:00 19.2 8 Sudoeste 22 Sur 0 997.5 -2.1 54
2017-11-12 15:00:00 19.3 16 Sudoeste 22 Sudoeste 0 997.4 -3.3 52
2017-11-12 14:00:00 19.1 14 Sur 24 Sur 0 998.2 -3.5 52
2017-11-12 13:00:00 18.7 4 Sudoeste 17 Sudoeste 0 999.6 -2.3 53
2017-11-12 12:00:00 17.8 3 Sur 8 Sur 0 1000.7 -1.4 55
2017-11-12 11:00:00 15.5 0 Calma 9 Este 0 1001.7 -0.2 65
2017-11-12 10:00:00 11.7 0 Calma 5 Sur 0 1001.9 0.1 79
2017-11-12 09:00:00 6.9 0 Calma 5 Nordeste 0 1002.1 0.4 93
2017-11-12 08:00:00 2.8 2 Este 8 Oeste 0 1001.9 -0.1 97
2017-11-12 07:00:00 3.1 0 Calma 9 Oeste 0 1001.8 -0.1 97
2017-11-12 06:00:00 3.1 6 Oeste 11 Oeste 0 1001.7 -0.6 97
2017-11-12 05:00:00 3.6 0 Calma 11 Sudoeste 0 1002 -0.5 96
2017-11-12 04:00:00 4.3 5 Oeste 11 Oeste 0 1001.9 -1.1 96
2017-11-12 03:00:00 4.4 0 Calma 5 Oeste 0 1002.3 -1.2 95
2017-11-12 02:00:00 5.4 0 Calma 17 Noroeste 0 1002.5 -1.3 93
2017-11-12 01:00:00 7.8 8 Norte 17 Norte 0 1003 -0.8 88
2017-11-12 00:00:00 6 4 Norte 13 Nordeste 0 1003.5 -0.6 94
2017-11-11 23:00:00 6.1 0 Calma 8 Nordeste 0 1003.8 -0.2 94
2017-11-11 22:00:00 7 0 Calma -- -- 0 1003.8 -0.3 91
2017-11-11 21:00:00 8 0 Calma 8 Noroeste 0 1004.1 -0.1 87
2017-11-11 20:00:00 9.3 2 Noroeste 5 Noroeste 0 1004 -0.2 84
2017-11-11 19:00:00 10 4 Oeste 5 Oeste 0 1004.1 -0.1 84
2017-11-11 18:00:00 11.6 0 Calma 4 Sur 0 1004.2 -0.1 75
2017-11-11 17:00:00 14.6 0 Calma 8 Sudeste 0 1004.2 -0.3 66
2017-11-11 16:00:00 14.6 0 Calma 5 Sudoeste 0 1004.2 -0.7 63
2017-11-11 15:00:00 13.8 0 Calma 8 Sudoeste 0 1004.3 -1.1 67
2017-11-11 14:00:00 13.9 6 Sudoeste 11 Sudoeste 0 1004.5 -1.4 64
2017-11-11 13:00:00 14.6 0 Calma 5 Sur 0 1004.9 -1.3 62
2017-11-11 12:00:00 13.6 2 Oeste 8 Oeste 0 1005.4 -0.7 65
2017-11-11 11:00:00 13.2 3 Sudoeste 8 Sur 0 1005.9 -0.2 63
2017-11-11 10:00:00 10.2 0 Calma 11 Sudeste 0 1006.2 0.4 74
2017-11-11 09:00:00 6.4 2 Norte 8 Sur 0 1006.1 0.3 85
2017-11-11 08:00:00 2.7 2 Norte 15 Noroeste 0 1006.1 0.5 95
2017-11-11 07:00:00 2.2 0 Calma 8 Nordeste 0 1005.8 -0.3 93
2017-11-11 06:00:00 1.9 0 Calma 11 Nordeste 0 1005.8 -0.4 95
2017-11-11 05:00:00 2.7 3 Oeste 5 Oeste 0 1005.6 -0.6 94
2017-11-11 04:00:00 3 0 Calma 8 Sur 0 1006.1 -0.8 92
2017-11-11 03:00:00 3 7 Nordeste 13 Este 0 1006.2 -0.9 92
2017-11-11 02:00:00 3.5 4 Oeste 8 Oeste 0 1006.2 -1.3 90
2017-11-11 01:00:00 4.4 2 Sudoeste 13 Sudeste 0 1006.9 -0.8 88
2017-11-11 00:00:00 5.3 0 Calma 5 Sudeste 0 1007.1 -0.7 84
2017-11-10 23:00:00 5.3 3 Este 11 Este 0 1007.5 -0.2 85
2017-11-10 22:00:00 6.2 0 Calma 13 Noroeste 0 1007.7 0.2 81
2017-11-10 21:00:00 6.6 4 Noroeste 8 Noroeste 0 1007.8 0.9 80
2017-11-10 20:00:00 7.2 3 Nordeste 5 Nordeste 0 1007.7 1.3 77
2017-11-10 19:00:00 7.7 3 Nordeste 8 Nordeste 0 1007.5 1 77
2017-11-10 18:00:00 10.8 0 Calma 13 Sudoeste 0 1006.9 0.5 64
2017-11-10 17:00:00 13.1 10 Sur 17 Sudoeste 0 1006.4 -0.4 57
2017-11-10 16:00:00 14.9 8 Sudoeste 21 Sudoeste 0 1006.5 -0.8 48
2017-11-10 15:00:00 16.4 12 Sudoeste 18 Sudoeste 0 1006.4 -1.9 41
2017-11-10 14:00:00 17.2 4 Sudoeste 13 Oeste 0 1006.8 -2.1 32
2017-11-10 13:00:00 16.1 4 Oeste 15 Oeste 0 1007.3 -1.8 39
2017-11-10 12:00:00 14.3 3 Oeste 15 Sur 0 1008.3 -0.5 45
2017-11-10 11:00:00 12.3 0 Calma 5 Este 0 1008.9 0.2 53
2017-11-10 10:00:00 7.6 3 Nordeste 5 Nordeste 0 1009.1 1.1 80
2017-11-10 09:00:00 3.7 0 Calma 4 Este 0 1008.8 0.9 90
2017-11-10 08:00:00 -0.2 0 Calma 5 Nordeste 0 1008.7 1 98
2017-11-10 07:00:00 -0.6 0 Calma 5 Nordeste 0 1008 0.4 98
2017-11-10 06:00:00 -0.4 0 Calma 8 Nordeste 0 1007.9 0.5 98
2017-11-10 05:00:00 0.1 0 Calma 4 Oeste 0 1007.7 0.6 97
2017-11-10 04:00:00 0.1 0 Calma 11 Este 0 1007.6 -0.1 97
2017-11-10 03:00:00 0.8 0 Calma 5 Noroeste 0 1007.4 -0.2 97
2017-11-10 02:00:00 1.2 0 Calma 4 Oeste 0 1007.1 -0.5 95
2017-11-10 01:00:00 2.3 0 Calma 4 Norte 0 1007.7 0.3 94
2017-11-10 00:00:00 3.3 0 Calma 8 Norte 0 1007.6 0.4 92
2017-11-09 23:00:00 2.5 0 Calma 5 Noroeste 0 1007.6 0.5 92
2017-11-09 22:00:00 3.5 0 Calma 15 Sudeste 0 1007.4 0.4 93
2017-11-09 21:00:00 3.5 3 Este 5 Este 0 1007.2 1 89
2017-11-09 20:00:00 5.2 2 Sudoeste 8 Noroeste 0 1007.1 1.4 85
2017-11-09 19:00:00 6.7 5 Noroeste 15 Nordeste 0 1007 1.5 79
2017-11-09 18:00:00 8.1 4 Nordeste 15 Nordeste 0 1006.2 0.9 76
2017-11-09 17:00:00 9.2 0 Calma 13 Este 0 1005.7 0.5 74
2017-11-09 16:00:00 10.7 3 Este 11 Este 0 1005.5 0 65
2017-11-09 15:00:00 11.3 5 Nordeste 11 Nordeste 0 1005.3 -0.7 60
2017-11-09 14:00:00 12.2 5 Este 15 Este 0 1005.2 -1.2 54
2017-11-09 13:00:00 11.3 8 Este 17 Nordeste 0 1005.5 -0.5 55
2017-11-09 12:00:00 10.8 5 Este 11 Este 0 1006 -0.2 56
2017-11-09 11:00:00 9.4 7 Nordeste 17 Nordeste 0 1006.4 0.7 64
2017-11-09 10:00:00 9.2 4 Nordeste 11 Nordeste 0 1006 0.7 65
2017-11-09 09:00:00 7 6 Nordeste 13 Norte 0 1006.2 1 74
2017-11-09 08:00:00 6.3 7 Norte 13 Norte 0 1005.7 0.8 73
2017-11-09 07:00:00 5.6 2 Nordeste 13 Norte 0 1005.3 0.8 78
2017-11-09 06:00:00 4.6 3 Norte 17 Norte 0 1005.2 0.9 84
2017-11-09 05:00:00 1.6 4 Nordeste 8 Nordeste 0 1004.9 0.6 95
2017-11-09 04:00:00 2 0 Calma 11 Norte 0 1004.5 0 90
2017-11-09 03:00:00 2.8 2 Oeste 5 Oeste 0 1004.3 -0.5 88
2017-11-09 02:00:00 4.2 2 Norte 11 Noroeste 0 1004.3 -0.2 84
2017-11-09 01:00:00 6.2 5 Noroeste -- -- 0 1004.5 0.2 76
2017-11-09 00:00:00 6.3 4 Noroeste 11 Norte 0 1004.8 0.8 77
2017-11-08 23:00:00 6.9 7 Norte 15 Norte 0 1004.5 0.7 75
2017-11-08 22:00:00 7.9 6 Norte 11 Norte 0 1004.3 0.7 69
2017-11-08 21:00:00 8.1 0 Calma 5 Nordeste 0 1004 1.2 69
2017-11-08 20:00:00 8.9 2 Este 8 Este 0 1003.8 1 78
2017-11-08 19:00:00 8.7 5 Nordeste 11 Este 0 1003.6 0.9 84
2017-11-08 18:00:00 10.8 0 Calma 2 Este 0 1002.8 -0.1 74
2017-11-08 17:00:00 12.7 2 Sudoeste 8 Oeste 0 1002.8 -0.1 63
2017-11-08 16:00:00 13.6 5 Oeste 8 Oeste 0 1002.7 -0.5 59
2017-11-08 15:00:00 14.1 0 Calma 4 Sudeste 0 1002.9 -0.7 56
2017-11-08 14:00:00 14.1 3 Nordeste 11 Nordeste 0 1002.9 -0.7 53
2017-11-08 13:00:00 13.8 3 Nordeste 8 Este 0 1003.2 -0.4 47
2017-11-08 12:00:00 12.3 0 Calma -- -- -- 1003.6 0.2 50
2017-11-08 11:00:00 10 3 Sur 8 Sur 0 1003.6 0.7 69
2017-11-08 10:00:00 5.3 0 Calma 5 Sudeste 0 1003.6 1 86
2017-11-08 09:00:00 2.6 4 Nordeste 5 Nordeste 0 1003.4 1 94
2017-11-08 08:00:00 1.8 2 Oeste 5 Nordeste 0 1002.9 0.6 94
2017-11-08 07:00:00 1.8 3 Nordeste 5 Nordeste 0 1002.6 0.3 94
2017-11-08 06:00:00 1.4 0 Calma 5 Sudeste 0 1002.4 0 94
2017-11-08 05:00:00 0.9 0 Calma 8 Nordeste 0 1002.3 0.1 95
2017-11-08 04:00:00 0.9 3 Nordeste 8 Oeste 0 1002.3 -0.1 93
2017-11-08 03:00:00 1.5 0 Calma 4 Nordeste 0 1002.4 -0.1 92
2017-11-08 02:00:00 2 0 Calma 4 Sudeste 0 1002.2 -0.2 90
2017-11-08 01:00:00 2.5 0 Calma 8 Nordeste 0 1002.4 0 87
2017-11-08 00:00:00 4.4 3 Norte 11 Norte 0 1002.5 0.2 78
2017-11-07 23:00:00 6.2 6 Norte 11 Noroeste 0 1002.4 1.2 73
2017-11-07 22:00:00 7.3 4 Norte 18 Norte 0 1002.4 1.3 60
2017-11-07 21:00:00 6.5 8 Norte 13 Nordeste 0 1002.3 2 77
2017-11-07 20:00:00 6.5 0 Calma 8 Este 0 1001.2 1.7 77
2017-11-07 19:00:00 9.1 3 Oeste 13 Sudeste 0 1001.1 1.9 67
2017-11-07 18:00:00 10.7 6 Sudeste 15 Sudeste 0 1000.3 1.4 61
2017-11-07 17:00:00 13.7 8 Sudeste 15 Sudeste 0 999.5 0.4 47
2017-11-07 16:00:00 15.5 5 Sur 18 Sur 0 999.2 -0.3 42
2017-11-07 15:00:00 15.8 8 Sur 21 Sudoeste 0 998.9 -1.6 38
2017-11-07 14:00:00 15.5 14 Sur 22 Sur 0 999.1 -1.7 28
2017-11-07 13:00:00 15 8 Sudoeste 17 Sudoeste 0 999.5 -0.9 29
2017-11-07 12:00:00 13.6 2 Nordeste 8 Este 0 1000.5 0.3 29
2017-11-07 11:00:00 11.3 0 Calma 8 Este 0 1000.8 0.7 40
2017-11-07 10:00:00 8.3 0 Calma 8 Este 0 1000.4 0.8 54
2017-11-07 09:00:00 4.4 3 Este 8 Nordeste 0 1000.2 0.8 66
2017-11-07 08:00:00 0.2 2 Nordeste 11 Nordeste 0 1000.1 0.8 80
2017-11-07 07:00:00 -0.5 5 Nordeste 11 Este 0 999.6 -0.1 80
2017-11-07 06:00:00 0.6 3 Oeste 8 Oeste 0 999.4 -0.6 76
2017-11-07 05:00:00 2.9 2 Norte 13 Noroeste 0 999.3 -0.6 64
2017-11-07 04:00:00 3 9 Noroeste 15 Noroeste 0 999.7 0.1 57
2017-11-07 03:00:00 0.9 0 Calma 8 Noroeste 0 1000 0.5 73
2017-11-07 02:00:00 2.2 0 Calma 15 Sudeste 0 999.9 0.8 66
2017-11-07 01:00:00 5.6 7 Norte 15 Sudeste 0 999.6 0.8 44
2017-11-07 00:00:00 3.6 4 Este 11 Nordeste 0 999.5 0.9 58
2017-11-06 23:00:00 5.7 3 Sur 22 Norte 0 999.1 0.8 49
2017-11-06 22:00:00 6.8 13 Noroeste 21 Noroeste 0 998.8 0.4 42
2017-11-06 21:00:00 6.2 7 Oeste 17 Norte 0 998.6 0.8 47
2017-11-06 20:00:00 10.3 9 Norte 26 Sudeste 0 998.3 1.1 27
2017-11-06 19:00:00 11.4 15 Sur 35 Sudeste 0 998.4 1.6 24
2017-11-06 18:00:00 11.4 11 Este 18 Sur 0 997.8 0.8 28
2017-11-06 17:00:00 15.7 4 Este 17 Oeste 0 997.2 -0.3 22
2017-11-06 16:00:00 17.1 4 Noroeste 28 Norte 0 996.8 -0.6 15
2017-11-06 15:00:00 16.2 10 Noroeste 37 Noroeste 0 997 -1.6 19
2017-11-06 14:00:00 15.5 19 Norte 67 Noroeste 0 997.5 -2.3 20
2017-11-06 13:00:00 15.3 24 Norte 68 Nordeste 0 997.4 -1.8 22
2017-11-06 12:00:00 14.6 26 Norte 58 Norte 0 998.6 -1.3 30
2017-11-06 11:00:00 13.8 26 Norte 63 Norte 0 999.8 -0.2 32
2017-11-06 10:00:00 13.2 24 Norte 48 Norte 0 999.2 -0.8 33
2017-11-06 09:00:00 12.1 17 Norte 45 Norte 0 999.9 -0.2 34
2017-11-06 08:00:00 10.6 10 Norte 41 Noroeste 0 1000 0 33
2017-11-06 07:00:00 5.2 8 Norte 33 Noroeste 0 1000 -0.1 60
2017-11-06 06:00:00 2.8 5 Oeste 13 Oeste 0 1000.1 -0.3 88
2017-11-06 05:00:00 4.5 3 Oeste 15 Este 0 1000 -0.6 79
2017-11-06 04:00:00 4.8 6 Oeste 11 Oeste 0 1000.1 -1 79
2017-11-06 03:00:00 5.8 0 Calma 18 Norte 0 1000.4 -1.1 73
2017-11-06 02:00:00 8.8 16 Norte 33 Nordeste 0 1000.6 -0.7 54
2017-11-06 01:00:00 9.2 23 Norte 33 Norte 0 1001.1 0.3 56
2017-11-06 00:00:00 6.4 3 Este 13 Este 0 1001.5 1.2 90
2017-11-05 23:00:00 7.6 3 Noroeste 9 Oeste 0 1001.3 1.7 84
2017-11-05 22:00:00 9.2 2 Norte 11 Norte 0 1000.8 1.3 79
2017-11-05 21:00:00 10.3 2 Norte 11 Noroeste 0 1000.3 1.4 74
2017-11-05 20:00:00 10.5 3 Noroeste 15 Nordeste 0 999.6 1.1 71
2017-11-05 19:00:00 11.6 10 Nordeste 21 Nordeste 0 999.5 1.1 66
2017-11-05 18:00:00 12.8 10 Este 30 Nordeste 0 998.9 0.7 61
2017-11-05 17:00:00 14.8 18 Nordeste 28 Nordeste 0 998.5 0.5 51
2017-11-05 16:00:00 16.2 14 Este 24 Nordeste 0 998.4 0.3 46
2017-11-05 15:00:00 17.7 15 Este 24 Este 0 998.2 -0.1 45
2017-11-05 14:00:00 18.6 12 Este 26 Este 0 998 -0.6 46
2017-11-05 13:00:00 18.3 17 Nordeste 26 Este 0 998.1 0.2 50
2017-11-05 12:00:00 17.5 9 Este 17 Este 0 998.3 0.9 67
2017-11-05 11:00:00 15.7 6 Este 18 Este 0 998.6 2.1 89
2017-11-05 10:00:00 14.5 3 Este 11 Sudeste 0 997.9 1.8 94
2017-11-05 09:00:00 12.8 0 Calma 2 Sur 0 997.4 2 98
2017-11-05 08:00:00 12 0 Calma 5 Norte 0 996.5 1.1 97
2017-11-05 07:00:00 12.4 3 Norte 13 Oeste 0 996.1 1.2 96
2017-11-05 06:00:00 12.3 6 Oeste 13 Oeste 0 995.4 1 97
2017-11-05 05:00:00 13 4 Oeste 5 Oeste 0 995.4 1.3 98
2017-11-05 04:00:00 13.2 3 Oeste 5 Sudoeste 0.5 994.9 1.2 99
2017-11-05 03:00:00 13.4 0 Calma 5 Nordeste 0.2 994.4 0.7 98
2017-11-05 02:00:00 13.4 0 Calma 11 Este 0 994.1 0.5 97
2017-11-05 01:00:00 13.3 0 Calma 5 Oeste 0 993.7 0.5 96
2017-11-05 00:00:00 13.4 2 Oeste 15 Sudoeste 0 993.7 -0.1 95
2017-11-04 23:00:00 13.3 0 Calma 13 Oeste 0 993.6 -0.3 95
2017-11-04 22:00:00 14.3 2 Norte 11 Norte 0.5 993.2 -0.9 91
2017-11-04 21:00:00 15.3 5 Noroeste 24 Oeste 1.4 993.8 0.2 89
2017-11-04 20:00:00 16.6 4 Norte 21 Norte 0.2 993.9 0.3 95
2017-11-04 19:00:00 16.9 6 Nordeste 17 Norte 0.2 994.1 0.7 93
2017-11-04 18:00:00 17.5 0 Calma 13 Nordeste 0 993.6 -0.1 86
2017-11-04 17:00:00 18.9 2 Norte 15 Nordeste 0 993.6 -0.6 82
2017-11-04 16:00:00 20.5 2 Nordeste 11 Nordeste 0 993.4 -1.6 75
2017-11-04 15:00:00 20.1 9 Nordeste 24 Nordeste 0 993.7 -2.7 77
2017-11-04 14:00:00 21.3 14 Este 18 Este 0 994.2 -2.5 72
2017-11-04 13:00:00 21.9 2 Sur 11 Oeste 0 995 -1.7 69
2017-11-04 12:00:00 19.1 3 Norte 13 Norte 0 996.4 -1 79
2017-11-04 11:00:00 17.9 9 Nordeste 15 Nordeste 0 996.7 -0.5 83
2017-11-04 10:00:00 15.8 6 Nordeste 15 Nordeste 0 996.7 -0.3 93
2017-11-04 09:00:00 14.2 3 Noroeste 9 Nordeste 0 997.4 0.7 96
2017-11-04 08:00:00 13.8 0 Calma 5 Nordeste 0 997.2 0.4 98
2017-11-04 07:00:00 13.8 5 Oeste 17 Norte 0 997 0 96
2017-11-04 06:00:00 13.2 5 Norte 8 Norte 0 996.7 -0.7 98
2017-11-04 05:00:00 13.7 2 Nordeste 11 Norte 0 996.8 -0.9 97
2017-11-04 04:00:00 12.8 3 Noroeste 5 Norte 0 997 -0.6 98
2017-11-04 03:00:00 12.7 3 Norte 5 Norte 0 997.4 -0.2 98
2017-11-04 02:00:00 13 2 Oeste 8 Nordeste 0 997.7 0.3 99
2017-11-04 01:00:00 13.1 0 Calma 5 Sur 0 997.6 0.1 98
2017-11-04 00:00:00 12.8 0 Calma 4 Sudoeste 0 997.6 0.3 95
2017-11-03 23:00:00 14.4 4 Sudoeste 11 Sur 0 997.4 0.4 95
2017-11-03 22:00:00 15 6 Sudoeste 17 Sur 0 997.5 0.7 94
2017-11-03 21:00:00 15.5 3 Sudoeste 18 Sur 0 997.3 0.9 92
2017-11-03 20:00:00 16.2 15 Sur 26 Sur 0 997 1.1 90
2017-11-03 19:00:00 16.9 22 Sudoeste 32 Sudoeste 0 996.8 0.6 88
2017-11-03 18:00:00 17.9 23 Sudoeste 35 Sur 0 996.4 0 84
2017-11-03 17:00:00 20.1 23 Sur 35 Sur 0 995.9 -1.2 75
2017-11-03 16:00:00 21.2 24 Sur 39 Sudoeste 0 996.2 -1.8 70
2017-11-03 15:00:00 22 27 Sudoeste 41 Sur 0 996.4 -2.7 60
2017-11-03 14:00:00 21.9 25 Sudoeste 42 Sur 0 997.1 -2.6 62
2017-11-03 13:00:00 21.1 17 Sur 24 Sur 0 998 -1.8 71
2017-11-03 12:00:00 18.1 3 Sur 11 Sur 0 999.1 -0.8 80
2017-11-03 11:00:00 15.7 3 Sur 11 Sur 0 999.7 -0.1 88
2017-11-03 10:00:00 14.7 0 Calma 5 Sudeste 0 999.8 0.2 95
2017-11-03 09:00:00 13.3 0 Calma -- -- 0 999.9 0.1 99
2017-11-03 08:00:00 12.7 0 Calma -- -- 0 999.8 0 100
2017-11-03 07:00:00 12.5 0 Calma -- -- 0 999.6 -0.4 100
2017-11-03 06:00:00 12.2 0 Calma -- -- 0 999.8 -0.7 100
2017-11-03 05:00:00 12.1 0 Calma -- -- 0 999.8 -0.8 100
2017-11-03 04:00:00 11.5 0 Calma 8 Norte 0 1000 -1.1 100
2017-11-03 03:00:00 10 0 Calma -- -- 0 1000.5 -0.8 97
2017-11-03 02:00:00 10.7 0 Calma -- -- 0 1000.6 -1.1 97
2017-11-03 01:00:00 11.8 0 Calma -- -- 0 1001.1 -0.9 97
2017-11-03 00:00:00 12.3 0 Calma 8 Norte 0 1001.3 -0.4 96
2017-11-02 23:00:00 13.4 5 Norte 15 Norte 0 1001.7 0 95
2017-11-02 22:00:00 14.2 7 Norte 15 Norte 0 1002 0.7 95
2017-11-02 21:00:00 15 9 Norte 17 Norte 0 1001.7 0.7 93
2017-11-02 20:00:00 15.4 6 Norte 17 Norte 0 1001.7 0.7 91
2017-11-02 19:00:00 17.2 4 Norte 15 Norte 0 1001.3 0.4 84
2017-11-02 18:00:00 18 11 Sur 30 Sur 0 1001 0.1 83
2017-11-02 17:00:00 20.3 21 Sur 28 Sudoeste 0 1001 -0.3 73
2017-11-02 16:00:00 21.1 15 Sudoeste 37 Sudoeste 0 1000.9 -1.3 66
2017-11-02 15:00:00 22.2 22 Sudoeste 35 Sudoeste 0 1000.9 -2.6 60
2017-11-02 14:00:00 23.3 28 Sur 37 Sur 0 1001.3 -2.9 57
2017-11-02 13:00:00 23.1 19 Sudoeste 28 Sudoeste 0 1002.2 -2.2 58
2017-11-02 12:00:00 21 8 Sudoeste 21 Sudoeste 0 1003.5 -0.9 66
2017-11-02 11:00:00 19.4 5 Sur 9 Sur 0 1004.2 0.1 73
2017-11-02 10:00:00 15.6 0 Calma 2 Sur 0 1004.4 0.7 92
2017-11-02 09:00:00 13.5 0 Calma 8 Norte 0 1004.4 0.7 97
2017-11-02 08:00:00 9 0 Calma -- -- 0 1004.1 0.3 99
2017-11-02 07:00:00 9.2 0 Calma 5 Nordeste 0 1003.7 -0.4 100
2017-11-02 06:00:00 9 3 Nordeste 5 Nordeste 0 1003.7 -0.9 99
2017-11-02 05:00:00 9.2 0 Calma -- -- 0 1003.8 -1.1 99
2017-11-02 04:00:00 9.2 0 Calma -- -- 0 1004.1 -1.2 99
2017-11-02 03:00:00 8.8 0 Calma -- -- 0 1004.6 -1.1 98
2017-11-02 02:00:00 8.9 0 Calma -- -- 0 1004.9 -1 96
2017-11-02 01:00:00 9.4 0 Calma -- -- 0 1005.3 -0.8 96
2017-11-02 00:00:00 10.5 0 Calma -- -- 0 1005.7 -0.1 97
2017-11-01 23:00:00 11.5 0 Calma 2 Sudoeste 0 1005.9 0.1 95
2017-11-01 22:00:00 12.5 0 Calma 4 Oeste 0 1006.1 0.5 90
2017-11-01 21:00:00 14 4 Sudoeste 13 Sur 0 1005.8 0.6 90
2017-11-01 20:00:00 14.2 9 Sudoeste 15 Sur 0 1005.8 0.8 88
2017-11-01 19:00:00 15 9 Sur 17 Sur 0 1005.6 0.4 85
2017-11-01 18:00:00 16.2 9 Sur 21 Sur 0 1005.2 0 81
2017-11-01 17:00:00 18.1 13 Sur 24 Sur 0 1005 -0.8 72
2017-11-01 16:00:00 19.3 17 Sur 28 Sur 0 1005.2 -1.2 69
2017-11-01 15:00:00 20.1 16 Sur 32 Sur 0 1005.2 -2.2 64
2017-11-01 14:00:00 20.3 15 Sur -- -- -- 1005.8 -2.1 61
2017-11-01 13:00:00 19.9 15 Sur 24 Sur 0 1006.4 -1.8 61
2017-11-01 12:00:00 18.6 10 Sur 21 Sur 0 1007.4 -0.7 66
2017-11-01 11:00:00 16.4 2 Sur 5 Sur 0 1007.9 0.3 65
2017-11-01 10:00:00 13.8 0 Calma 4 Sudeste 0 1008.2 1.3 76
2017-11-01 09:00:00 9.6 0 Calma -- -- 0 1008.1 1.3 89
2017-11-01 08:00:00 4.6 0 Calma 4 Este 0 1007.6 0.8 97
2017-11-01 07:00:00 4.3 0 Calma 5 Oeste 0 1006.9 -0.1 96
2017-11-01 06:00:00 5 5 Oeste 8 Oeste 0 1006.8 -0.3 97
2017-11-01 05:00:00 4.7 0 Calma 2 Sudoeste 0 1006.8 -0.7 94
2017-11-01 04:00:00 4.8 0 Calma 2 Este 0 1007 -0.4 93
2017-11-01 03:00:00 4.9 2 Este 4 Este 0 1007.1 -0.6 94
2017-11-01 02:00:00 6.1 0 Calma -- -- -- 1007.5 -0.2 90
2017-11-01 01:00:00 6.8 0 Calma 4 Sudeste 0 1007.4 -0.4 90
2017-11-01 00:00:00 7.4 0 Calma -- -- 0 1007.7 0 88
2017-10-31 23:00:00 7.7 0 Calma -- -- 0 1007.7 0.4 85
2017-10-31 22:00:00 8.6 0 Calma 5 Noroeste 0 1007.8 0.7 82
2017-10-31 21:00:00 9.4 0 Calma 8 Norte 0 1007.7 1.2 78
2017-10-31 20:00:00 10.2 0 Calma 5 Norte 0 1007.3 1.3 75
2017-10-31 19:00:00 12 2 Nordeste 11 Este 0 1007.1 1.2 69
2017-10-31 18:00:00 14.4 6 Este 13 Sudeste 0 1006.5 0.6 58
2017-10-31 17:00:00 17.6 9 Este 13 Este 0 1006 -0.2 47
2017-10-31 16:00:00 19.7 3 Este 11 Este 0 1005.9 -0.7 36
2017-10-31 15:00:00 19.7 5 Nordeste 17 Sudeste 0 1005.9 -1.2 36
2017-10-31 14:00:00 18.9 4 Nordeste 21 Nordeste 0 1006.2 -1.3 41
2017-10-31 13:00:00 18 8 Nordeste 22 Nordeste 0 1006.6 -0.6 43
2017-10-31 12:00:00 16.9 12 Nordeste 28 Nordeste 0 1007.1 0.4 48
2017-10-31 11:00:00 15.5 17 Nordeste 28 Nordeste 0 1007.5 1.3 53
2017-10-31 10:00:00 13.9 13 Nordeste 22 Nordeste 0 1007.2 1.8 67
2017-10-31 09:00:00 11.9 15 Norte 21 Norte 0 1006.7 1.5 74
2017-10-31 08:00:00 9.4 10 Norte 15 Norte 0 1006.2 1.3 83
2017-10-31 07:00:00 9 8 Nordeste 17 Norte 0 1005.4 0.7 82
2017-10-31 06:00:00 8.4 8 Norte 18 Norte 0 1005.2 0.5 86
2017-10-31 05:00:00 9.8 5 Norte 17 Norte 0 1004.9 0.3 80
2017-10-31 04:00:00 9.1 3 Norte 13 Norte 0 1004.7 -0.1 84
2017-10-31 03:00:00 10.3 5 Norte 15 Norte 0 1004.7 -0.2 76
2017-10-31 02:00:00 10.1 10 Norte -- -- -- 1004.6 -0.3 81
2017-10-31 01:00:00 11.2 7 Norte 13 Norte 0 1004.8 0.2 76
2017-10-31 00:00:00 10.2 5 Norte 17 Nordeste 0 1004.9 0.8 82
2017-10-30 23:00:00 11.8 12 Nordeste 18 Nordeste 0 1004.9 1.6 77
2017-10-30 22:00:00 12.9 8 Nordeste 18 Nordeste 0 1004.6 1.8 77
2017-10-30 21:00:00 13 6 Nordeste 13 Nordeste 0 1004.1 2.3 77
2017-10-30 20:00:00 12.8 7 Nordeste 22 Nordeste 0 1003.3 2.3 76
2017-10-30 19:00:00 14.5 14 Nordeste 26 Este 0 1002.8 2.3 69
2017-10-30 18:00:00 16.6 15 Este 22 Este 0 1001.8 1.5 63
2017-10-30 17:00:00 18 9 Sur 17 Sur 0 1001 0.8 66
2017-10-30 16:00:00 19.7 7 Sudeste 18 Sudeste 0 1000.5 -0.1 53
2017-10-30 15:00:00 21.6 8 Sudeste 21 Sudeste 0 1000.3 -0.8 50
2017-10-30 14:00:00 21.4 7 Sur 15 Sur 0 1000.2 -1.2 49
2017-10-30 13:00:00 20.7 4 Sur 17 Sur 0 1000.6 -0.7 50
2017-10-30 12:00:00 19.6 6 Este 15 Nordeste 0 1001.1 -0.2 54
2017-10-30 11:00:00 18.8 3 Este 9 Este 0 1001.4 0.6 55
2017-10-30 10:00:00 16.2 0 Calma 8 Este 0 1001.3 0.9 66
2017-10-30 09:00:00 12.2 0 Calma 11 Noroeste 0 1001.3 1.1 83
2017-10-30 08:00:00 8.2 0 Calma 5 Oeste 0 1000.8 0.8 95
2017-10-30 07:00:00 8 3 Noroeste 8 Noroeste 0 1000.4 0.2 94
2017-10-30 06:00:00 6.7 2 Norte 8 Nordeste 0 1000.2 -0.3 95
2017-10-30 05:00:00 6.8 0 Calma 4 Nordeste 0 1000 -0.9 92
2017-10-30 04:00:00 7.4 0 Calma 8 Noroeste 0 1000.2 -0.7 91
2017-10-30 03:00:00 7.8 2 Oeste 5 Oeste 0 1000.5 -0.6 91
2017-10-30 02:00:00 8.4 0 Calma -- -- -- 1000.9 -0.3 87
2017-10-30 01:00:00 9.3 2 Este 13 Este 0 1000.9 -0.4 82
2017-10-30 00:00:00 9.1 4 Norte 13 Nordeste 0 1001.1 0 83
2017-10-29 23:00:00 10.1 0 Calma 15 Nordeste 0 1001.2 -0.1 77
2017-10-29 22:00:00 9.9 3 Nordeste 11 Este 0 1001.3 -0.2 78
2017-10-29 21:00:00 13 4 Noroeste 11 Noroeste 0 1001.1 0.2 62
2017-10-29 20:00:00 14.3 7 Noroeste 24 Nordeste 0 1001.3 0.9 55
2017-10-29 19:00:00 15.8 17 Nordeste 26 Nordeste 0 1001.5 0.9 52
2017-10-29 18:00:00 17.8 7 Este 17 Sur 0 1000.9 -0.1 72
2017-10-29 17:00:00 21 8 Sudeste 17 Sudeste 0 1000.4 -1.4 60
2017-10-29 16:00:00 24.1 12 Sudeste 17 Sudeste 0 1000.6 -2 48
2017-10-29 15:00:00 25.2 4 Sur 13 Sur 0 1001 -2.5 32
2017-10-29 14:00:00 24.5 4 Sudeste 11 Sudeste 0 1001.8 -2.5 35
2017-10-29 13:00:00 23.3 4 Sudeste 11 Sudeste 0 1002.6 -2.1 45
2017-10-29 12:00:00 21.3 3 Sudeste 11 Sur 0 1003.5 -1.5 52
2017-10-29 11:00:00 18.7 4 Sudoeste 11 Oeste 0 1004.3 -0.5 65
2017-10-29 10:00:00 14.5 3 Sudoeste 8 Oeste 0 1004.7 0.2 81
2017-10-29 09:00:00 12.2 2 Sudoeste 8 Nordeste 0 1005 0.5 87
2017-10-29 08:00:00 8.3 4 Nordeste 5 Nordeste 0 1004.8 -- 97
2017-10-29 07:00:00 7.5 0 Calma 4 Este 0 1004.5 -- 98
2017-10-29 06:00:00 7.9 0 Calma 4 Este 0 1004.5 -- 98
2017-10-29 05:00:00 -- -- -- -- -- -- -- -- --
2017-10-29 04:00:00 -- -- -- -- -- -- -- -- --
2017-10-29 03:00:00 -- -- -- -- -- -- -- -- --
2017-10-29 02:00:00 10.2 5 Oeste -- -- -- 1006 -0.2 90
2017-10-29 01:00:00 11.4 5 Nordeste 17 Norte 0 1006.3 0.1 85
2017-10-29 00:00:00 13.2 10 Norte 17 Norte 0 1006.2 -0.1 80
2017-10-28 23:00:00 14 10 Norte 13 Norte 0 1006.2 0 79
2017-10-28 22:00:00 14.4 2 Norte 17 Este 0 1006.2 0.4 90
2017-10-28 21:00:00 15 6 Nordeste 13 Este 0 1006.3 0.3 92
2017-10-28 20:00:00 16.3 3 Este 13 Sur 0 1006.2 0 88
2017-10-28 19:00:00 18.7 4 Sur 15 Sur 0 1005.8 -0.5 79
2017-10-28 18:00:00 20.8 10 Sur 21 Sur 0 1006 -0.6 72
2017-10-28 17:00:00 22 13 Sur 24 Sur 0 1006.2 -1.2 67
2017-10-28 16:00:00 22.9 17 Sur 24 Sur 0 1006.3 -2 61
2017-10-28 15:00:00 23.4 3 Sudoeste 17 Sur 0 1006.6 -2 55
2017-10-28 14:00:00 22.5 5 Sur 15 Sudoeste 0 1007.4 -1.2 57
2017-10-28 13:00:00 21.7 2 Este 11 Sudeste 0 1008.3 -0.4 58
2017-10-28 12:00:00 20.1 3 Este 8 Este 0 1008.6 0.3 62
2017-10-28 11:00:00 16.2 4 Nordeste 8 Nordeste 0 1008.6 0.7 78
2017-10-28 10:00:00 14.4 0 Calma 4 Sudoeste 0 1008.7 0.8 87
2017-10-28 09:00:00 10.7 0 Calma 11 Noroeste 0 1008.3 0.8 94
2017-10-28 08:00:00 9.4 3 Oeste 11 Norte 0 1007.9 0.4 96
2017-10-28 07:00:00 9.6 0 Calma 8 Este 0 1007.9 0.3 95
2017-10-28 06:00:00 10.2 3 Este 13 Nordeste 0 1007.5 -0.6 94
2017-10-28 05:00:00 11.6 0 Calma 13 Norte 0 1007.5 -0.6 92
2017-10-28 04:00:00 12 2 Oeste 13 Noroeste 0 1007.6 0 92
2017-10-28 03:00:00 12.3 6 Oeste -- -- -- 1008.1 0.3 89
2017-10-28 02:00:00 12.7 7 Norte 15 Este 0 1008.1 0.2 86
2017-10-28 01:00:00 12.3 5 Este 15 Este 0 1007.6 -0.6 88
2017-10-28 00:00:00 13.6 5 Noroeste 13 Oeste 0 1007.8 -0.2 85
2017-10-27 23:00:00 15.9 4 Norte 15 Norte 0 1007.9 0 68
2017-10-27 22:00:00 16.2 5 Norte 13 Nordeste 0 1008.2 0.8 67
2017-10-27 21:00:00 17.5 6 Norte 13 Norte 0 1008 0.9 62
2017-10-27 20:00:00 18.2 11 Norte 28 Nordeste 0 1007.9 1 62
2017-10-27 19:00:00 19.8 18 Nordeste 30 Nordeste 0 1007.4 0.2 58
2017-10-27 18:00:00 21.8 16 Nordeste 30 Nordeste 0 1007.1 -0.4 51
2017-10-27 17:00:00 23.6 16 Nordeste 35 Este 0 1006.9 -0.9 49
2017-10-27 16:00:00 23.3 26 Nordeste 41 Nordeste 0 1007.2 -1.4 49
2017-10-27 15:00:00 24 18 Nordeste 32 Nordeste 0 1007.5 -1.6 47
2017-10-27 14:00:00 23.8 18 Nordeste 28 Nordeste 0 1007.8 -1.5 46
2017-10-27 13:00:00 23 15 Nordeste 21 Nordeste 0 1008.6 -0.7 48
2017-10-27 12:00:00 21 12 Nordeste 21 Nordeste 0 1009.1 -0.1 60
2017-10-27 11:00:00 18.8 2 Este 8 Este 0 1009.3 0.6 83
2017-10-27 10:00:00 14.9 3 Nordeste 5 Nordeste 0 1009.3 0.5 94
2017-10-27 09:00:00 11.5 0 Calma -- -- 0 1009.2 0.3 100
2017-10-27 08:00:00 10.2 0 Calma -- -- 0 1008.7 -0.4 100
2017-10-27 07:00:00 10.9 0 Calma -- -- 0 1008.8 -0.7 100
2017-10-27 06:00:00 11.2 0 Calma -- -- 0 1008.9 -1.1 100
2017-10-27 05:00:00 12.3 0 Calma -- -- 0 1009.1 -1.3 100
2017-10-27 04:00:00 13.2 0 Calma -- -- 0 1009.5 -1.3 100
2017-10-27 03:00:00 14.2 0 Calma -- -- -- 1010 -1 100
2017-10-27 02:00:00 15 0 Calma 4 Oeste 0 1010.4 -0.5 100
2017-10-27 01:00:00 15.9 0 Calma 4 Norte 0 1010.8 -0.1 100
2017-10-27 00:00:00 16.2 0 Calma -- -- 0 1011 0.4 100
2017-10-26 23:00:00 15.9 0 Calma 2 Oeste 0 1010.9 0.5 99
2017-10-26 22:00:00 14.7 0 Calma -- -- 0 1010.9 0.8 93
2017-10-26 21:00:00 16.6 0 Calma 4 Sudeste 0 1010.6 1 95
2017-10-26 20:00:00 18 0 Calma 8 Sur 0 1010.4 0.8 91
2017-10-26 19:00:00 19.2 5 Sur 15 Sur 0 1010.1 0.5 88
2017-10-26 18:00:00 21.8 13 Sur 18 Sudoeste 0 1009.6 -0.2 78
2017-10-26 17:00:00 23.1 12 Sur 18 Sur 0 1009.6 -0.8 72
2017-10-26 16:00:00 23.7 9 Sur 18 Sudoeste 0 1009.6 -1.5 68
2017-10-26 15:00:00 23.5 6 Sur 17 Sudeste 0 1009.8 -1.3 65
2017-10-26 14:00:00 22.4 3 Sur 13 Sudeste 0 1010.4 -0.5 68
2017-10-26 13:00:00 21.1 0 Calma 8 Nordeste 0 1011.1 0.3 73
2017-10-26 12:00:00 18.2 0 Calma 5 Nordeste 0 1011.1 0.8 87
2017-10-26 11:00:00 15.5 0 Calma 5 Nordeste 0 1010.9 1.1 97
2017-10-26 10:00:00 14.1 0 Calma -- -- 0 1010.8 1.1 100
2017-10-26 09:00:00 12.2 0 Calma 5 Sudoeste 0 1010.3 0.7 99
2017-10-26 08:00:00 13.3 0 Calma 8 Norte 0 1009.8 0.3 100
2017-10-26 07:00:00 12.6 0 Calma -- -- 0 1009.7 0.1 99
2017-10-26 06:00:00 12.1 0 Calma 5 Norte 0 1009.6 -0.1 99
2017-10-26 05:00:00 10.4 4 Norte 8 Norte 0 1009.5 -0.3 98
2017-10-26 04:00:00 11 0 Calma -- -- 0 1009.6 -0.3 98
2017-10-26 03:00:00 11.1 0 Calma -- -- -- 1009.7 -0.2 98
2017-10-26 02:00:00 11.4 0 Calma -- -- 0 1009.8 -0.2 97
2017-10-26 01:00:00 12.1 0 Calma -- -- 0 1009.9 0.3 97
2017-10-26 00:00:00 12.8 0 Calma -- -- 0 1009.9 0.4 95
2017-10-25 23:00:00 12.9 0 Calma 2 Nordeste 0 1010 0.9 93
2017-10-25 22:00:00 14.3 0 Calma 5 Oeste 0 1009.6 0.9 91
2017-10-25 21:00:00 15 0 Calma 4 Sur 0 1009.5 1.4 88
2017-10-25 20:00:00 16.9 3 Sudoeste 8 Sur 0 1009.1 1.4 82
2017-10-25 19:00:00 18.3 6 Sur 18 Sur 0 1008.7 1.1 73
2017-10-25 18:00:00 20.9 14 Sur 21 Sur 0 1008.1 0.3 60
2017-10-25 17:00:00 22.6 17 Sur 26 Sur 0 1007.7 -0.6 54
2017-10-25 16:00:00 23.9 16 Sur 24 Sur 0 1007.6 -1.3 51
2017-10-25 15:00:00 24.7 15 Sur 22 Sur 0 1007.8 -1.2 46
2017-10-25 14:00:00 24.2 10 Sur 18 Sur 0.4 1008.3 -0.7 46
2017-10-25 13:00:00 23 4 Sur 11 Sudoeste 0 1008.9 0 51
2017-10-25 12:00:00 21.8 0 Calma 5 Nordeste 0 1009 0.6 59
2017-10-25 11:00:00 19.3 0 Calma 5 Sur 0 1009 1.1 69
2017-10-25 10:00:00 16.7 0 Calma 4 Sur 0 1008.9 1.4 78
2017-10-25 09:00:00 13.7 0 Calma 11 Norte 0 1008.4 1.1 85
2017-10-25 08:00:00 13.9 8 Norte 15 Norte 0 1007.9 0.8 84
2017-10-25 07:00:00 12.3 8 Norte 17 Norte 0 1007.5 0.3 95
2017-10-25 06:00:00 9.8 0 Calma -- -- 0 1007.3 -0.1 97
2017-10-25 05:00:00 9.6 0 Calma -- -- 0 1007.1 -0.3 97
2017-10-25 04:00:00 10.4 0 Calma -- -- 0 1007.2 -0.3 95
2017-10-25 03:00:00 10.3 0 Calma -- -- -- 1007.4 0 94
2017-10-25 02:00:00 10.7 0 Calma -- -- 0 1007.4 0.1 92
2017-10-25 01:00:00 11 0 Calma -- -- 0 1007.5 0.2 91
2017-10-25 00:00:00 11.6 0 Calma -- -- 0 1007.4 0.3 90